sensor_id;sensor_type;location;lat;lon;timestamp;P1;durP1;ratioP1;P2;durP2;ratioP2
1010;SDS011;494;48.744;10.106;2023-12-28T00:00:23;627.38;;;576.72;;
1010;SDS011;494;48.744;10.106;2023-12-28T00:02:54;609.42;;;561.65;;
1010;SDS011;494;48.744;10.106;2023-12-28T00:05:23;612.22;;;564.45;;
1010;SDS011;494;48.744;10.106;2023-12-28T00:07:52;612.75;;;563.35;;
1010;SDS011;494;48.744;10.106;2023-12-28T00:10:25;617.90;;;568.35;;
1010;SDS011;494;48.744;10.106;2023-12-28T00:12:55;617.17;;;567.38;;
1010;SDS011;494;48.744;10.106;2023-12-28T00:15:23;610.38;;;561.78;;
1010;SDS011;494;48.744;10.106;2023-12-28T00:17:55;600.47;;;552.55;;
1010;SDS011;494;48.744;10.106;2023-12-28T00:20:24;584.08;;;537.58;;
1010;SDS011;494;48.744;10.106;2023-12-28T00:22:53;609.50;;;559.63;;
1010;SDS011;494;48.744;10.106;2023-12-28T00:25:22;607.08;;;557.35;;
1010;SDS011;494;48.744;10.106;2023-12-28T00:27:50;630.55;;;577.20;;
1010;SDS011;494;48.744;10.106;2023-12-28T00:30:19;621.65;;;571.45;;
1010;SDS011;494;48.744;10.106;2023-12-28T00:32:48;633.72;;;581.40;;
1010;SDS011;494;48.744;10.106;2023-12-28T00:35:18;596.55;;;547.20;;
1010;SDS011;494;48.744;10.106;2023-12-28T00:37:47;633.58;;;579.13;;
1010;SDS011;494;48.744;10.106;2023-12-28T00:40:16;672.80;;;613.70;;
1010;SDS011;494;48.744;10.106;2023-12-28T00:42:45;649.63;;;593.20;;
1010;SDS011;494;48.744;10.106;2023-12-28T00:45:14;631.08;;;577.08;;
1010;SDS011;494;48.744;10.106;2023-12-28T00:47:43;595.53;;;545.70;;
1010;SDS011;494;48.744;10.106;2023-12-28T00:50:12;629.72;;;577.17;;
1010;SDS011;494;48.744;10.106;2023-12-28T00:52:43;642.85;;;586.60;;
1010;SDS011;494;48.744;10.106;2023-12-28T00:55:11;670.78;;;610.90;;
1010;SDS011;494;48.744;10.106;2023-12-28T00:57:40;612.72;;;560.60;;
1010;SDS011;494;48.744;10.106;2023-12-28T01:00:09;571.97;;;525.45;;
1010;SDS011;494;48.744;10.106;2023-12-28T01:02:39;586.72;;;538.25;;
1010;SDS011;494;48.744;10.106;2023-12-28T01:05:08;570.30;;;523.40;;
1010;SDS011;494;48.744;10.106;2023-12-28T01:07:37;563.83;;;518.58;;
1010;SDS011;494;48.744;10.106;2023-12-28T01:10:07;535.13;;;492.85;;
1010;SDS011;494;48.744;10.106;2023-12-28T01:12:36;558.78;;;513.63;;
1010;SDS011;494;48.744;10.106;2023-12-28T01:15:05;568.17;;;523.25;;
1010;SDS011;494;48.744;10.106;2023-12-28T01:17:34;538.78;;;495.65;;
1010;SDS011;494;48.744;10.106;2023-12-28T01:20:04;575.67;;;529.05;;
1010;SDS011;494;48.744;10.106;2023-12-28T01:22:34;556.28;;;513.33;;
1010;SDS011;494;48.744;10.106;2023-12-28T01:25:04;531.63;;;489.90;;
1010;SDS011;494;48.744;10.106;2023-12-28T01:27:36;556.95;;;512.85;;
1010;SDS011;494;48.744;10.106;2023-12-28T01:30:06;584.70;;;536.20;;
1010;SDS011;494;48.744;10.106;2023-12-28T01:32:36;593.58;;;544.75;;
1010;SDS011;494;48.744;10.106;2023-12-28T01:35:04;583.67;;;535.90;;
1010;SDS011;494;48.744;10.106;2023-12-28T01:37:34;577.17;;;530.08;;
1010;SDS011;494;48.744;10.106;2023-12-28T01:40:04;539.33;;;496.10;;
1010;SDS011;494;48.744;10.106;2023-12-28T01:42:37;552.90;;;508.10;;
1010;SDS011;494;48.744;10.106;2023-12-28T01:45:06;611.30;;;560.95;;
1010;SDS011;494;48.744;10.106;2023-12-28T01:47:36;594.25;;;544.97;;
1010;SDS011;494;48.744;10.106;2023-12-28T01:50:05;635.05;;;580.42;;
1010;SDS011;494;48.744;10.106;2023-12-28T01:52:35;712.83;;;646.90;;
1010;SDS011;494;48.744;10.106;2023-12-28T01:55:06;844.42;;;761.97;;
1010;SDS011;494;48.744;10.106;2023-12-28T01:57:37;656.05;;;597.40;;
1010;SDS011;494;48.744;10.106;2023-12-28T02:00:07;725.50;;;658.17;;
1010;SDS011;494;48.744;10.106;2023-12-28T02:02:36;665.33;;;605.92;;
1010;SDS011;494;48.744;10.106;2023-12-28T02:05:06;680.53;;;619.95;;
1010;SDS011;494;48.744;10.106;2023-12-28T02:07:35;657.58;;;599.92;;
1010;SDS011;494;48.744;10.106;2023-12-28T02:10:05;609.92;;;556.88;;
1010;SDS011;494;48.744;10.106;2023-12-28T02:12:35;748.90;;;679.47;;
1010;SDS011;494;48.744;10.106;2023-12-28T02:15:07;727.03;;;660.70;;
1010;SDS011;494;48.744;10.106;2023-12-28T02:17:40;755.83;;;685.45;;
1010;SDS011;494;48.744;10.106;2023-12-28T02:20:16;899.63;;;812.28;;
1010;SDS011;494;48.744;10.106;2023-12-28T02:22:49;882.25;;;796.65;;
1010;SDS011;494;48.744;10.106;2023-12-28T02:25:22;788.00;;;712.85;;
1010;SDS011;494;48.744;10.106;2023-12-28T02:27:51;902.97;;;814.53;;
1010;SDS011;494;48.744;10.106;2023-12-28T02:30:21;893.97;;;805.83;;
1010;SDS011;494;48.744;10.106;2023-12-28T02:33:01;790.70;;;715.58;;
1010;SDS011;494;48.744;10.106;2023-12-28T02:35:39;890.13;;;802.13;;
1010;SDS011;494;48.744;10.106;2023-12-28T02:38:12;858.92;;;776.72;;
1010;SDS011;494;48.744;10.106;2023-12-28T02:40:44;825.30;;;747.25;;
1010;SDS011;494;48.744;10.106;2023-12-28T02:43:16;833.20;;;753.45;;
1010;SDS011;494;48.744;10.106;2023-12-28T02:45:45;786.00;;;711.83;;
1010;SDS011;494;48.744;10.106;2023-12-28T02:48:13;940.13;;;846.50;;
1010;SDS011;494;48.744;10.106;2023-12-28T02:50:42;899.90;;;810.38;;
1010;SDS011;494;48.744;10.106;2023-12-28T02:53:12;915.22;;;825.15;;
1010;SDS011;494;48.744;10.106;2023-12-28T02:55:41;985.10;;;886.22;;
1010;SDS011;494;48.744;10.106;2023-12-28T02:58:13;980.85;;;881.55;;
1010;SDS011;494;48.744;10.106;2023-12-28T03:00:42;1058.03;;;950.13;;
1010;SDS011;494;48.744;10.106;2023-12-28T03:03:11;1058.63;;;948.97;;
1010;SDS011;494;48.744;10.106;2023-12-28T03:05:40;1057.20;;;947.75;;
1010;SDS011;494;48.744;10.106;2023-12-28T03:08:09;1100.05;;;986.38;;
1010;SDS011;494;48.744;10.106;2023-12-28T03:10:38;1051.97;;;943.50;;
1010;SDS011;494;48.744;10.106;2023-12-28T03:13:07;1034.80;;;928.78;;
1010;SDS011;494;48.744;10.106;2023-12-28T03:15:37;1056.47;;;947.88;;
1010;SDS011;494;48.744;10.106;2023-12-28T03:18:05;1027.82;;;921.80;;
1010;SDS011;494;48.744;10.106;2023-12-28T03:20:34;1057.40;;;947.47;;
1010;SDS011;494;48.744;10.106;2023-12-28T03:23:03;1034.57;;;927.75;;
1010;SDS011;494;48.744;10.106;2023-12-28T03:25:32;954.28;;;855.58;;
1010;SDS011;494;48.744;10.106;2023-12-28T03:28:00;998.60;;;894.38;;
1010;SDS011;494;48.744;10.106;2023-12-28T03:30:29;970.90;;;870.60;;
1010;SDS011;494;48.744;10.106;2023-12-28T03:32:59;1012.92;;;907.42;;
1010;SDS011;494;48.744;10.106;2023-12-28T03:35:28;925.40;;;828.80;;
1010;SDS011;494;48.744;10.106;2023-12-28T03:37:57;941.78;;;843.10;;
1010;SDS011;494;48.744;10.106;2023-12-28T03:40:26;991.55;;;886.85;;
1010;SDS011;494;48.744;10.106;2023-12-28T03:42:55;1049.78;;;938.22;;
1010;SDS011;494;48.744;10.106;2023-12-28T03:45:23;1024.22;;;917.05;;
1010;SDS011;494;48.744;10.106;2023-12-28T03:47:52;999.55;;;894.63;;
1010;SDS011;494;48.744;10.106;2023-12-28T03:50:23;1025.35;;;918.65;;
1010;SDS011;494;48.744;10.106;2023-12-28T03:52:52;969.55;;;867.35;;
1010;SDS011;494;48.744;10.106;2023-12-28T03:55:20;912.30;;;817.15;;
1010;SDS011;494;48.744;10.106;2023-12-28T03:57:49;991.85;;;887.38;;
1010;SDS011;494;48.744;10.106;2023-12-28T04:00:18;1010.83;;;905.05;;
1010;SDS011;494;48.744;10.106;2023-12-28T04:02:47;1023.17;;;916.83;;
1010;SDS011;494;48.744;10.106;2023-12-28T04:05:17;970.10;;;869.53;;
1010;SDS011;494;48.744;10.106;2023-12-28T04:07:47;1006.65;;;901.65;;
1010;SDS011;494;48.744;10.106;2023-12-28T04:10:28;1047.78;;;938.03;;
1010;SDS011;494;48.744;10.106;2023-12-28T04:12:58;1062.43;;;951.67;;
1010;SDS011;494;48.744;10.106;2023-12-28T04:15:27;1061.82;;;951.03;;
1010;SDS011;494;48.744;10.106;2023-12-28T04:17:56;1053.65;;;943.22;;
1010;SDS011;494;48.744;10.106;2023-12-28T04:20:26;1068.75;;;956.78;;
1010;SDS011;494;48.744;10.106;2023-12-28T04:22:56;1024.72;;;919.63;;
1010;SDS011;494;48.744;10.106;2023-12-28T04:25:24;1030.90;;;923.92;;
1010;SDS011;494;48.744;10.106;2023-12-28T04:27:53;1027.07;;;922.10;;
1010;SDS011;494;48.744;10.106;2023-12-28T04:30:22;988.50;;;888.30;;
1010;SDS011;494;48.744;10.106;2023-12-28T04:32:51;916.13;;;824.58;;
1010;SDS011;494;48.744;10.106;2023-12-28T04:35:20;935.58;;;841.22;;
1010;SDS011;494;48.744;10.106;2023-12-28T04:37:48;941.75;;;847.63;;
1010;SDS011;494;48.744;10.106;2023-12-28T04:40:19;995.80;;;894.75;;
1010;SDS011;494;48.744;10.106;2023-12-28T04:42:47;979.25;;;881.40;;
1010;SDS011;494;48.744;10.106;2023-12-28T04:45:16;956.22;;;862.00;;
1010;SDS011;494;48.744;10.106;2023-12-28T04:47:45;1000.08;;;900.40;;
1010;SDS011;494;48.744;10.106;2023-12-28T04:50:14;1001.70;;;901.92;;
1010;SDS011;494;48.744;10.106;2023-12-28T04:52:43;1004.25;;;904.17;;
1010;SDS011;494;48.744;10.106;2023-12-28T04:55:13;989.50;;;891.85;;
1010;SDS011;494;48.744;10.106;2023-12-28T04:57:43;928.13;;;836.85;;
1010;SDS011;494;48.744;10.106;2023-12-28T05:00:12;907.28;;;818.85;;
1010;SDS011;494;48.744;10.106;2023-12-28T05:02:42;835.50;;;756.83;;
1010;SDS011;494;48.744;10.106;2023-12-28T05:05:11;844.10;;;763.78;;
1010;SDS011;494;48.744;10.106;2023-12-28T05:07:40;706.85;;;644.22;;
1010;SDS011;494;48.744;10.106;2023-12-28T05:10:08;662.10;;;605.05;;
1010;SDS011;494;48.744;10.106;2023-12-28T05:12:38;696.50;;;634.55;;
1010;SDS011;494;48.744;10.106;2023-12-28T05:15:11;612.05;;;560.42;;
1010;SDS011;494;48.744;10.106;2023-12-28T05:17:40;673.38;;;614.03;;
1010;SDS011;494;48.744;10.106;2023-12-28T05:20:10;616.00;;;563.67;;
1010;SDS011;494;48.744;10.106;2023-12-28T05:22:39;622.53;;;569.28;;
1010;SDS011;494;48.744;10.106;2023-12-28T05:25:07;529.97;;;486.08;;
1010;SDS011;494;48.744;10.106;2023-12-28T05:27:36;475.65;;;437.70;;
1010;SDS011;494;48.744;10.106;2023-12-28T05:30:05;430.13;;;396.67;;
1010;SDS011;494;48.744;10.106;2023-12-28T05:32:37;421.70;;;388.15;;
1010;SDS011;494;48.744;10.106;2023-12-28T05:35:06;381.85;;;352.45;;
1010;SDS011;494;48.744;10.106;2023-12-28T05:37:35;395.25;;;364.90;;
1010;SDS011;494;48.744;10.106;2023-12-28T05:40:05;396.65;;;364.92;;
1010;SDS011;494;48.744;10.106;2023-12-28T05:42:36;437.70;;;404.67;;
1010;SDS011;494;48.744;10.106;2023-12-28T05:45:05;423.10;;;391.75;;
1010;SDS011;494;48.744;10.106;2023-12-28T05:47:36;425.33;;;393.42;;
1010;SDS011;494;48.744;10.106;2023-12-28T05:50:06;437.85;;;405.35;;
1010;SDS011;494;48.744;10.106;2023-12-28T05:52:36;468.92;;;433.80;;
1010;SDS011;494;48.744;10.106;2023-12-28T05:55:07;436.58;;;404.30;;
1010;SDS011;494;48.744;10.106;2023-12-28T05:57:35;424.23;;;392.25;;
1010;SDS011;494;48.744;10.106;2023-12-28T06:00:05;399.95;;;370.85;;
1010;SDS011;494;48.744;10.106;2023-12-28T06:02:37;412.25;;;382.17;;
1010;SDS011;494;48.744;10.106;2023-12-28T06:05:07;388.30;;;359.65;;
1010;SDS011;494;48.744;10.106;2023-12-28T06:07:36;393.00;;;364.50;;
1010;SDS011;494;48.744;10.106;2023-12-28T06:10:05;370.92;;;343.65;;
1010;SDS011;494;48.744;10.106;2023-12-28T06:12:35;364.00;;;336.73;;
1010;SDS011;494;48.744;10.106;2023-12-28T06:15:04;348.60;;;322.55;;
1010;SDS011;494;48.744;10.106;2023-12-28T06:17:34;357.98;;;331.25;;
1010;SDS011;494;48.744;10.106;2023-12-28T06:20:05;358.77;;;332.38;;
1010;SDS011;494;48.744;10.106;2023-12-28T06:22:36;368.15;;;341.35;;
1010;SDS011;494;48.744;10.106;2023-12-28T06:25:05;364.98;;;337.98;;
1010;SDS011;494;48.744;10.106;2023-12-28T06:27:36;369.70;;;342.40;;
1010;SDS011;494;48.744;10.106;2023-12-28T06:30:07;350.52;;;324.02;;
1010;SDS011;494;48.744;10.106;2023-12-28T06:32:36;357.33;;;330.27;;
1010;SDS011;494;48.744;10.106;2023-12-28T06:35:08;334.17;;;309.05;;
1010;SDS011;494;48.744;10.106;2023-12-28T06:37:37;312.65;;;288.13;;
1010;SDS011;494;48.744;10.106;2023-12-28T06:40:17;317.58;;;292.80;;
1010;SDS011;494;48.744;10.106;2023-12-28T06:42:46;321.63;;;297.17;;
1010;SDS011;494;48.744;10.106;2023-12-28T06:45:15;319.25;;;294.15;;
1010;SDS011;494;48.744;10.106;2023-12-28T06:47:43;349.77;;;322.85;;
1010;SDS011;494;48.744;10.106;2023-12-28T06:50:14;328.20;;;302.27;;
1010;SDS011;494;48.744;10.106;2023-12-28T06:52:44;315.08;;;290.48;;
1010;SDS011;494;48.744;10.106;2023-12-28T06:55:13;345.50;;;318.90;;
1010;SDS011;494;48.744;10.106;2023-12-28T06:57:41;358.88;;;331.75;;
1010;SDS011;494;48.744;10.106;2023-12-28T07:00:10;360.40;;;333.00;;
1010;SDS011;494;48.744;10.106;2023-12-28T07:02:41;363.50;;;336.30;;
1010;SDS011;494;48.744;10.106;2023-12-28T07:05:09;396.23;;;366.95;;
1010;SDS011;494;48.744;10.106;2023-12-28T07:07:42;405.40;;;375.13;;
1010;SDS011;494;48.744;10.106;2023-12-28T07:10:11;373.53;;;345.97;;
1010;SDS011;494;48.744;10.106;2023-12-28T07:12:39;386.38;;;356.98;;
1010;SDS011;494;48.744;10.106;2023-12-28T07:15:09;351.85;;;325.45;;
1010;SDS011;494;48.744;10.106;2023-12-28T07:17:41;344.92;;;318.38;;
1010;SDS011;494;48.744;10.106;2023-12-28T07:20:10;333.47;;;308.20;;
1010;SDS011;494;48.744;10.106;2023-12-28T07:22:39;327.63;;;302.58;;
1010;SDS011;494;48.744;10.106;2023-12-28T07:25:09;319.42;;;294.98;;
1010;SDS011;494;48.744;10.106;2023-12-28T07:27:38;341.23;;;316.05;;
1010;SDS011;494;48.744;10.106;2023-12-28T07:30:08;322.40;;;297.45;;
1010;SDS011;494;48.744;10.106;2023-12-28T07:32:38;369.67;;;342.58;;
1010;SDS011;494;48.744;10.106;2023-12-28T07:35:07;416.43;;;386.17;;
1010;SDS011;494;48.744;10.106;2023-12-28T07:37:36;444.95;;;413.15;;
1010;SDS011;494;48.744;10.106;2023-12-28T07:40:08;456.03;;;423.93;;
1010;SDS011;494;48.744;10.106;2023-12-28T07:42:36;457.67;;;425.50;;
1010;SDS011;494;48.744;10.106;2023-12-28T07:45:06;408.90;;;379.50;;
1010;SDS011;494;48.744;10.106;2023-12-28T07:47:35;326.20;;;301.63;;
1010;SDS011;494;48.744;10.106;2023-12-28T07:50:04;315.07;;;291.20;;
1010;SDS011;494;48.744;10.106;2023-12-28T07:52:34;253.97;;;233.17;;
1010;SDS011;494;48.744;10.106;2023-12-28T07:55:04;222.73;;;201.93;;
1010;SDS011;494;48.744;10.106;2023-12-28T07:57:36;295.10;;;268.57;;
1010;SDS011;494;48.744;10.106;2023-12-28T08:00:05;399.03;;;364.73;;
1010;SDS011;494;48.744;10.106;2023-12-28T08:02:35;554.73;;;508.20;;
1010;SDS011;494;48.744;10.106;2023-12-28T08:05:04;750.73;;;689.17;;
1010;SDS011;494;48.744;10.106;2023-12-28T08:07:34;842.03;;;774.07;;
1010;SDS011;494;48.744;10.106;2023-12-28T08:10:03;893.93;;;820.93;;
1010;SDS011;494;48.744;10.106;2023-12-28T08:12:36;699.00;;;641.67;;
1010;SDS011;494;48.744;10.106;2023-12-28T08:15:06;754.03;;;692.37;;
1010;SDS011;494;48.744;10.106;2023-12-28T08:17:36;895.10;;;821.40;;
1010;SDS011;494;48.744;10.106;2023-12-28T08:20:06;1001.37;;;917.17;;
1010;SDS011;494;48.744;10.106;2023-12-28T08:22:53;1003.50;;;920.13;;
1010;SDS011;494;48.744;10.106;2023-12-28T08:25:40;1001.00;;;915.93;;
1010;SDS011;494;48.744;10.106;2023-12-28T08:28:10;1020.03;;;934.13;;
1010;SDS011;494;48.744;10.106;2023-12-28T08:30:39;1024.83;;;938.83;;
1010;SDS011;494;48.744;10.106;2023-12-28T08:33:08;1018.93;;;932.60;;
1010;SDS011;494;48.744;10.106;2023-12-28T08:35:37;1003.60;;;921.30;;
1010;SDS011;494;48.744;10.106;2023-12-28T08:38:06;1013.37;;;929.37;;
1010;SDS011;494;48.744;10.106;2023-12-28T08:40:35;996.67;;;913.87;;
1010;SDS011;494;48.744;10.106;2023-12-28T08:43:04;988.30;;;907.60;;
1010;SDS011;494;48.744;10.106;2023-12-28T08:45:34;993.47;;;912.30;;
1010;SDS011;494;48.744;10.106;2023-12-28T08:48:03;971.13;;;891.47;;
1010;SDS011;494;48.744;10.106;2023-12-28T08:50:34;942.00;;;867.33;;
1010;SDS011;494;48.744;10.106;2023-12-28T08:53:02;903.77;;;833.63;;
1010;SDS011;494;48.744;10.106;2023-12-28T08:55:31;884.73;;;817.07;;
1010;SDS011;494;48.744;10.106;2023-12-28T08:58:01;894.33;;;825.67;;
1010;SDS011;494;48.744;10.106;2023-12-28T09:00:30;865.93;;;800.40;;
1010;SDS011;494;48.744;10.106;2023-12-28T09:03:00;886.10;;;819.07;;
1010;SDS011;494;48.744;10.106;2023-12-28T09:05:29;842.97;;;780.50;;
1010;SDS011;494;48.744;10.106;2023-12-28T09:07:57;829.57;;;768.40;;
1010;SDS011;494;48.744;10.106;2023-12-28T09:10:26;845.93;;;782.67;;
1010;SDS011;494;48.744;10.106;2023-12-28T09:12:55;841.23;;;778.00;;
1010;SDS011;494;48.744;10.106;2023-12-28T09:15:24;819.30;;;759.07;;
1010;SDS011;494;48.744;10.106;2023-12-28T09:17:53;788.60;;;730.93;;
1010;SDS011;494;48.744;10.106;2023-12-28T09:20:25;797.53;;;739.17;;
1010;SDS011;494;48.744;10.106;2023-12-28T09:22:54;770.57;;;714.00;;
1010;SDS011;494;48.744;10.106;2023-12-28T09:25:23;760.23;;;705.27;;
1010;SDS011;494;48.744;10.106;2023-12-28T09:27:51;753.77;;;698.83;;
1010;SDS011;494;48.744;10.106;2023-12-28T09:30:21;724.03;;;672.93;;
1010;SDS011;494;48.744;10.106;2023-12-28T09:32:50;721.17;;;669.53;;
1010;SDS011;494;48.744;10.106;2023-12-28T09:35:19;703.77;;;654.00;;
1010;SDS011;494;48.744;10.106;2023-12-28T09:37:49;685.47;;;636.77;;
1010;SDS011;494;48.744;10.106;2023-12-28T09:40:18;670.80;;;623.73;;
1010;SDS011;494;48.744;10.106;2023-12-28T09:42:48;634.40;;;589.90;;
1010;SDS011;494;48.744;10.106;2023-12-28T09:45:33;565.57;;;526.23;;
1010;SDS011;494;48.744;10.106;2023-12-28T09:48:02;626.77;;;583.27;;
1010;SDS011;494;48.744;10.106;2023-12-28T09:50:33;626.03;;;582.83;;
1010;SDS011;494;48.744;10.106;2023-12-28T09:53:03;674.33;;;626.97;;
1010;SDS011;494;48.744;10.106;2023-12-28T09:55:33;669.90;;;623.17;;
1010;SDS011;494;48.744;10.106;2023-12-28T09:58:02;672.13;;;624.87;;
1010;SDS011;494;48.744;10.106;2023-12-28T10:00:34;658.53;;;612.30;;
1010;SDS011;494;48.744;10.106;2023-12-28T10:03:04;658.10;;;610.97;;
1010;SDS011;494;48.744;10.106;2023-12-28T10:05:34;646.03;;;600.30;;
1010;SDS011;494;48.744;10.106;2023-12-28T10:08:05;650.80;;;604.77;;
1010;SDS011;494;48.744;10.106;2023-12-28T10:10:34;665.77;;;617.37;;
1010;SDS011;494;48.744;10.106;2023-12-28T10:13:03;676.53;;;625.03;;
1010;SDS011;494;48.744;10.106;2023-12-28T10:15:33;602.57;;;555.27;;
1010;SDS011;494;48.744;10.106;2023-12-28T10:18:04;600.50;;;548.53;;
1010;SDS011;494;48.744;10.106;2023-12-28T10:20:33;592.37;;;546.63;;
1010;SDS011;494;48.744;10.106;2023-12-28T10:23:04;630.63;;;577.30;;
1010;SDS011;494;48.744;10.106;2023-12-28T10:25:34;567.53;;;517.57;;
1010;SDS011;494;48.744;10.106;2023-12-28T10:28:04;612.73;;;568.10;;
1010;SDS011;494;48.744;10.106;2023-12-28T10:30:33;734.20;;;678.73;;
1010;SDS011;494;48.744;10.106;2023-12-28T10:33:04;592.47;;;550.30;;
1010;SDS011;494;48.744;10.106;2023-12-28T10:35:34;596.83;;;553.07;;
1010;SDS011;494;48.744;10.106;2023-12-28T10:38:04;584.23;;;541.77;;
1010;SDS011;494;48.744;10.106;2023-12-28T10:40:37;595.53;;;553.03;;
1010;SDS011;494;48.744;10.106;2023-12-28T10:43:08;580.80;;;539.80;;
1010;SDS011;494;48.744;10.106;2023-12-28T10:45:46;534.87;;;496.23;;
1010;SDS011;494;48.744;10.106;2023-12-28T10:48:20;560.53;;;521.17;;
1010;SDS011;494;48.744;10.106;2023-12-28T10:51:01;471.37;;;437.60;;
1010;SDS011;494;48.744;10.106;2023-12-28T10:53:41;492.50;;;455.63;;
1010;SDS011;494;48.744;10.106;2023-12-28T10:56:20;484.07;;;447.47;;
1010;SDS011;494;48.744;10.106;2023-12-28T10:59:00;485.03;;;448.90;;
1010;SDS011;494;48.744;10.106;2023-12-28T11:01:51;441.03;;;408.50;;
1010;SDS011;494;48.744;10.106;2023-12-28T11:04:27;529.37;;;490.67;;
1010;SDS011;494;48.744;10.106;2023-12-28T11:07:09;507.67;;;469.53;;
1010;SDS011;494;48.744;10.106;2023-12-28T11:09:41;591.63;;;548.53;;
1010;SDS011;494;48.744;10.106;2023-12-28T11:12:10;554.73;;;511.33;;
1010;SDS011;494;48.744;10.106;2023-12-28T11:14:41;724.03;;;669.57;;
1010;SDS011;494;48.744;10.106;2023-12-28T11:17:10;660.93;;;612.07;;
1010;SDS011;494;48.744;10.106;2023-12-28T11:19:41;636.33;;;589.53;;
1010;SDS011;494;48.744;10.106;2023-12-28T11:22:11;695.83;;;644.77;;
1010;SDS011;494;48.744;10.106;2023-12-28T11:24:43;651.33;;;603.03;;
1010;SDS011;494;48.744;10.106;2023-12-28T11:27:12;607.23;;;562.70;;
1010;SDS011;494;48.744;10.106;2023-12-28T11:29:41;715.77;;;661.83;;
1010;SDS011;494;48.744;10.106;2023-12-28T11:32:11;700.03;;;647.87;;
1010;SDS011;494;48.744;10.106;2023-12-28T11:34:41;596.33;;;551.63;;
1010;SDS011;494;48.744;10.106;2023-12-28T11:37:12;666.43;;;616.03;;
1010;SDS011;494;48.744;10.106;2023-12-28T11:39:48;702.23;;;649.30;;
1010;SDS011;494;48.744;10.106;2023-12-28T11:42:19;731.23;;;675.60;;
1010;SDS011;494;48.744;10.106;2023-12-28T11:44:53;644.27;;;595.20;;
1010;SDS011;494;48.744;10.106;2023-12-28T11:47:25;673.33;;;619.87;;
1010;SDS011;494;48.744;10.106;2023-12-28T11:49:54;730.57;;;673.60;;
1010;SDS011;494;48.744;10.106;2023-12-28T11:52:34;612.27;;;564.60;;
1010;SDS011;494;48.744;10.106;2023-12-28T11:55:05;679.80;;;626.80;;
1010;SDS011;494;48.744;10.106;2023-12-28T11:57:36;692.73;;;638.17;;
1010;SDS011;494;48.744;10.106;2023-12-28T12:00:06;679.30;;;625.13;;
1010;SDS011;494;48.744;10.106;2023-12-28T12:02:37;680.10;;;626.17;;
1010;SDS011;494;48.744;10.106;2023-12-28T12:05:06;591.77;;;544.63;;
1010;SDS011;494;48.744;10.106;2023-12-28T12:07:36;614.77;;;565.73;;
1010;SDS011;494;48.744;10.106;2023-12-28T12:10:13;583.40;;;536.60;;
1010;SDS011;494;48.744;10.106;2023-12-28T12:12:43;572.87;;;527.20;;
1010;SDS011;494;48.744;10.106;2023-12-28T12:15:13;591.83;;;543.70;;
1010;SDS011;494;48.744;10.106;2023-12-28T12:17:42;714.60;;;656.60;;
1010;SDS011;494;48.744;10.106;2023-12-28T12:20:11;727.80;;;668.73;;
1010;SDS011;494;48.744;10.106;2023-12-28T12:22:40;755.00;;;691.43;;
1010;SDS011;494;48.744;10.106;2023-12-28T12:25:10;843.80;;;773.13;;
1010;SDS011;494;48.744;10.106;2023-12-28T12:27:39;776.97;;;713.97;;
1010;SDS011;494;48.744;10.106;2023-12-28T12:30:10;797.07;;;732.17;;
1010;SDS011;494;48.744;10.106;2023-12-28T12:32:39;874.00;;;799.73;;
1010;SDS011;494;48.744;10.106;2023-12-28T12:35:10;829.33;;;759.97;;
1010;SDS011;494;48.744;10.106;2023-12-28T12:37:41;862.37;;;789.53;;
1010;SDS011;494;48.744;10.106;2023-12-28T12:40:12;934.87;;;853.10;;
1010;SDS011;494;48.744;10.106;2023-12-28T12:42:42;843.83;;;773.43;;
1010;SDS011;494;48.744;10.106;2023-12-28T12:45:19;885.50;;;809.43;;
1010;SDS011;494;48.744;10.106;2023-12-28T12:47:48;845.53;;;773.80;;
1010;SDS011;494;48.744;10.106;2023-12-28T12:50:19;824.93;;;753.73;;
1010;SDS011;494;48.744;10.106;2023-12-28T12:52:48;834.23;;;762.77;;
1010;SDS011;494;48.744;10.106;2023-12-28T12:55:18;853.73;;;781.27;;
1010;SDS011;494;48.744;10.106;2023-12-28T12:57:47;819.10;;;750.83;;
1010;SDS011;494;48.744;10.106;2023-12-28T13:00:17;801.00;;;734.73;;
1010;SDS011;494;48.744;10.106;2023-12-28T13:02:48;773.27;;;709.17;;
1010;SDS011;494;48.744;10.106;2023-12-28T13:05:20;789.83;;;723.77;;
1010;SDS011;494;48.744;10.106;2023-12-28T13:07:49;840.10;;;770.00;;
1010;SDS011;494;48.744;10.106;2023-12-28T13:10:19;809.90;;;741.77;;
1010;SDS011;494;48.744;10.106;2023-12-28T13:12:47;834.23;;;764.53;;
1010;SDS011;494;48.744;10.106;2023-12-28T13:15:17;747.90;;;685.87;;
1010;SDS011;494;48.744;10.106;2023-12-28T13:17:46;936.37;;;854.30;;
1010;SDS011;494;48.744;10.106;2023-12-28T13:20:14;860.57;;;787.57;;
1010;SDS011;494;48.744;10.106;2023-12-28T13:22:43;913.97;;;836.63;;
1010;SDS011;494;48.744;10.106;2023-12-28T13:25:12;896.27;;;819.97;;
1010;SDS011;494;48.744;10.106;2023-12-28T13:27:42;918.50;;;837.90;;
1010;SDS011;494;48.744;10.106;2023-12-28T13:30:11;907.13;;;829.13;;
1010;SDS011;494;48.744;10.106;2023-12-28T13:32:42;924.97;;;845.07;;
1010;SDS011;494;48.744;10.106;2023-12-28T13:35:11;924.40;;;843.50;;
1010;SDS011;494;48.744;10.106;2023-12-28T13:37:39;904.13;;;825.73;;
1010;SDS011;494;48.744;10.106;2023-12-28T13:40:09;866.43;;;792.67;;
1010;SDS011;494;48.744;10.106;2023-12-28T13:42:38;907.17;;;830.33;;
1010;SDS011;494;48.744;10.106;2023-12-28T13:45:09;903.20;;;826.37;;
1010;SDS011;494;48.744;10.106;2023-12-28T13:47:41;905.30;;;828.67;;
1010;SDS011;494;48.744;10.106;2023-12-28T13:50:10;885.57;;;810.27;;
1010;SDS011;494;48.744;10.106;2023-12-28T13:52:39;884.03;;;810.17;;
1010;SDS011;494;48.744;10.106;2023-12-28T13:55:08;903.23;;;826.80;;
1010;SDS011;494;48.744;10.106;2023-12-28T13:57:38;840.83;;;770.60;;
1010;SDS011;494;48.744;10.106;2023-12-28T14:00:09;919.70;;;841.63;;
1010;SDS011;494;48.744;10.106;2023-12-28T14:02:39;857.17;;;786.10;;
1010;SDS011;494;48.744;10.106;2023-12-28T14:05:08;842.83;;;773.57;;
1010;SDS011;494;48.744;10.106;2023-12-28T14:07:37;916.67;;;838.57;;
1010;SDS011;494;48.744;10.106;2023-12-28T14:10:06;843.43;;;774.07;;
1010;SDS011;494;48.744;10.106;2023-12-28T14:12:35;932.90;;;855.03;;
1010;SDS011;494;48.744;10.106;2023-12-28T14:15:05;849.63;;;779.23;;
1010;SDS011;494;48.744;10.106;2023-12-28T14:17:36;866.10;;;795.27;;
1010;SDS011;494;48.744;10.106;2023-12-28T14:20:06;887.87;;;814.03;;
1010;SDS011;494;48.744;10.106;2023-12-28T14:22:38;877.50;;;804.07;;
1010;SDS011;494;48.744;10.106;2023-12-28T14:25:09;900.83;;;825.80;;
1010;SDS011;494;48.744;10.106;2023-12-28T14:27:39;846.93;;;777.30;;
1010;SDS011;494;48.744;10.106;2023-12-28T14:30:09;883.07;;;809.80;;
1010;SDS011;494;48.744;10.106;2023-12-28T14:32:41;896.87;;;821.90;;
1010;SDS011;494;48.744;10.106;2023-12-28T14:35:11;894.53;;;819.53;;
1010;SDS011;494;48.744;10.106;2023-12-28T14:37:42;866.77;;;794.67;;